Pottstown, Pennsylvania
Current Conditions -  °F | °C
As of 7:54 AM on Thursday 27 Nov 2014 (Local Time) from KPTW Reporting Station
Overcast Overcast  
Wind Chill: 33°   Ceiling: 2800
Heat Index: 33°   Visibility: 10mi
Dew Point: 29°   Wind: 3mph
Humidity: 85%   Direction: 290°WNW
Pressure: 30.01"   Gusts: NA
Location:  40.25°N, 75.65°W
Report Text: KPTW 271254Z AUTO 29003KT 10SM OVC028 01/M02 A3001 RMK AO2 SLP162 T00061017
Loading
Personal Weather Stations






























Interactive Weather Map New forecast layout! Learn more

10-Day Weather Forecast

Advertisements
Track Severe Weather on mobile